createdAt,value
2018-01-24T00:01:47.551Z,1.50
2018-01-24T00:04:14.999Z,1.87
2018-01-24T00:06:42.537Z,1.30
2018-01-24T00:09:09.992Z,1.50
2018-01-24T00:11:37.467Z,1.37
2018-01-24T00:14:04.923Z,1.40
2018-01-24T00:16:32.397Z,1.40
2018-01-24T00:18:59.856Z,1.43
2018-01-24T00:21:27.321Z,1.40
2018-01-24T00:23:55.037Z,1.40
2018-01-24T00:26:22.824Z,1.20
2018-01-24T00:28:50.459Z,1.50
2018-01-24T00:31:17.958Z,1.63
2018-01-24T00:33:45.413Z,1.53
2018-01-24T00:36:12.880Z,1.47
2018-01-24T00:38:40.412Z,1.90
2018-01-24T00:41:07.897Z,1.53
2018-01-24T00:43:35.537Z,1.60
2018-01-24T00:46:02.997Z,1.40
2018-01-24T00:48:30.549Z,1.10
2018-01-24T00:50:58.313Z,1.50
2018-01-24T00:53:25.772Z,1.47
2018-01-24T00:55:53.241Z,1.47
2018-01-24T00:58:20.993Z,1.20
2018-01-24T01:00:48.566Z,1.47
2018-01-24T01:03:16.113Z,1.53
2018-01-24T01:05:43.587Z,1.03
2018-01-24T01:08:11.060Z,1.30
2018-01-24T01:10:38.532Z,1.00
2018-01-24T01:13:05.982Z,1.07
2018-01-24T01:15:33.448Z,1.43
2018-01-24T01:18:00.965Z,1.07
2018-01-24T01:20:28.426Z,1.20
2018-01-24T01:22:56.188Z,1.33
2018-01-24T01:25:23.657Z,1.33
2018-01-24T01:27:51.623Z,1.13
2018-01-24T01:30:20.100Z,1.50
2018-01-24T01:32:47.890Z,1.20
2018-01-24T01:35:15.356Z,1.00
2018-01-24T01:37:42.817Z,1.13
2018-01-24T01:40:10.433Z,1.17
2018-01-24T01:42:37.893Z,1.20
2018-01-24T01:45:05.369Z,1.10
2018-01-24T01:47:33.596Z,1.17
2018-01-24T01:50:01.140Z,0.97
2018-01-24T01:52:28.629Z,1.20
2018-01-24T01:54:56.072Z,1.07
2018-01-24T01:57:23.544Z,1.10
2018-01-24T01:59:51.010Z,1.17
2018-01-24T02:02:18.480Z,1.10
2018-01-24T02:04:45.942Z,1.20
2018-01-24T02:07:13.403Z,1.10
2018-01-24T02:09:40.884Z,1.17
2018-01-24T02:12:08.357Z,1.10
2018-01-24T02:14:35.813Z,1.20
2018-01-24T02:17:03.279Z,1.00
2018-01-24T02:19:30.808Z,1.07
2018-01-24T02:21:58.273Z,1.20
2018-01-24T02:24:25.728Z,0.80
2018-01-24T02:26:53.195Z,1.00
2018-01-24T02:29:20.690Z,1.17
2018-01-24T02:31:48.277Z,1.30
2018-01-24T02:34:15.740Z,1.20
2018-01-24T02:36:43.207Z,1.50
2018-01-24T02:39:16.612Z,1.10
2018-01-24T02:41:44.077Z,1.30
2018-01-24T02:44:11.682Z,1.10
2018-01-24T02:46:39.189Z,1.40
2018-01-24T02:49:06.645Z,1.37
2018-01-24T02:51:34.105Z,1.03
2018-01-24T02:54:01.560Z,0.90
2018-01-24T02:56:29.119Z,1.00
2018-01-24T02:58:56.744Z,1.13
2018-01-24T03:01:24.270Z,1.10
2018-01-24T03:03:52.384Z,1.07
2018-01-24T03:06:19.856Z,1.10
2018-01-24T03:08:47.601Z,1.13
2018-01-24T03:11:15.260Z,1.13
2018-01-24T03:13:42.725Z,1.27
2018-01-24T03:16:10.196Z,1.07
2018-01-24T03:18:37.648Z,1.13
2018-01-24T03:21:05.109Z,1.00
2018-01-24T03:23:32.686Z,1.20
2018-01-24T03:26:00.320Z,0.80
2018-01-24T03:28:27.901Z,1.10
2018-01-24T03:30:55.484Z,1.00
2018-01-24T03:33:23.011Z,1.03
2018-01-24T03:35:51.034Z,1.00
2018-01-24T03:38:19.272Z,1.00
2018-01-24T03:40:46.725Z,1.00
2018-01-24T03:43:14.181Z,0.70
2018-01-24T03:45:41.640Z,1.17
2018-01-24T03:48:09.130Z,1.20
2018-01-24T03:50:36.672Z,0.93
2018-01-24T03:53:04.217Z,0.97
2018-01-24T03:55:31.659Z,1.00
2018-01-24T03:57:59.240Z,0.87
2018-01-24T04:00:26.693Z,0.83
2018-01-24T04:02:54.161Z,1.10
2018-01-24T04:05:21.929Z,1.00
2018-01-24T04:07:49.568Z,0.90
2018-01-24T04:10:17.029Z,0.90
2018-01-24T04:12:44.497Z,0.90
2018-01-24T04:15:11.965Z,1.17
2018-01-24T04:17:39.426Z,1.00
2018-01-24T04:20:06.872Z,0.80
2018-01-24T04:22:34.336Z,1.00
2018-01-24T04:25:01.889Z,0.93
2018-01-24T04:27:29.358Z,1.20
2018-01-24T04:29:56.808Z,1.00
2018-01-24T04:32:24.453Z,1.03
2018-01-24T04:34:52.030Z,0.90
2018-01-24T04:37:19.820Z,1.10
2018-01-24T04:39:47.276Z,0.80
2018-01-24T04:42:14.904Z,0.83
2018-01-24T04:44:42.361Z,0.87
2018-01-24T04:47:09.855Z,0.80
2018-01-24T04:49:37.306Z,1.00
2018-01-24T04:52:04.768Z,0.90
2018-01-24T04:54:32.307Z,0.77
2018-01-24T04:56:59.764Z,0.90
2018-01-24T04:59:27.424Z,1.00
2018-01-24T05:01:54.956Z,0.90
2018-01-24T05:04:22.402Z,0.70
2018-01-24T05:06:49.873Z,0.80
2018-01-24T05:09:17.345Z,0.80
2018-01-24T05:11:44.788Z,0.73
2018-01-24T05:14:12.253Z,0.83
2018-01-24T05:16:39.703Z,1.10
2018-01-24T05:19:07.164Z,1.20
2018-01-24T05:21:38.041Z,0.70
2018-01-24T05:24:05.513Z,0.90
2018-01-24T05:26:33.272Z,0.87
2018-01-24T05:29:01.027Z,0.90
2018-01-24T05:31:28.489Z,1.80
2018-01-24T05:33:56.141Z,2.33
2018-01-24T05:36:23.700Z,2.23
2018-01-24T05:38:51.155Z,2.80
2018-01-24T05:41:18.616Z,3.17
2018-01-24T05:43:46.273Z,2.60
2018-01-24T05:46:13.733Z,2.20
2018-01-24T05:48:41.197Z,2.07
2018-01-24T05:51:08.761Z,1.70
2018-01-24T05:53:36.220Z,1.27
2018-01-24T05:56:03.676Z,1.60
2018-01-24T05:58:31.326Z,1.20
2018-01-24T06:00:58.800Z,1.27
2018-01-24T06:03:26.264Z,1.33
2018-01-24T06:05:53.829Z,1.40
2018-01-24T06:08:21.309Z,1.20
2018-01-24T06:10:48.760Z,1.20
2018-01-24T06:13:16.380Z,1.40
2018-01-24T06:15:43.852Z,1.30
2018-01-24T06:18:11.316Z,1.17
2018-01-24T06:20:38.768Z,1.60
2018-01-24T06:23:06.216Z,1.30
2018-01-24T06:25:33.684Z,1.30
2018-01-24T06:28:01.253Z,1.20
2018-01-24T06:30:28.692Z,1.30
2018-01-24T06:32:56.170Z,1.10
2018-01-24T06:35:23.801Z,1.67
2018-01-24T06:37:51.288Z,2.10
2018-01-24T06:40:18.753Z,1.70
2018-01-24T06:42:46.312Z,1.93
2018-01-24T06:45:13.765Z,1.93
2018-01-24T06:47:41.238Z,1.50
2018-01-24T06:50:08.855Z,1.57
2018-01-24T06:52:36.321Z,1.53
2018-01-24T06:55:04.070Z,1.43
2018-01-24T06:57:31.540Z,1.33
2018-01-24T06:59:59.005Z,1.20
2018-01-24T07:02:26.585Z,1.17
2018-01-24T07:04:54.229Z,1.40
2018-01-24T07:07:22.740Z,1.93
2018-01-24T07:09:50.320Z,1.10
2018-01-24T07:12:30.209Z,1.10
2018-01-24T07:14:57.677Z,2.00
2018-01-24T07:17:25.342Z,1.30
2018-01-24T07:19:52.809Z,1.90
2018-01-24T07:22:20.292Z,1.30
2018-01-24T07:24:48.685Z,1.20
2018-01-24T07:27:16.228Z,0.97
2018-01-24T07:29:43.672Z,1.03
2018-01-24T07:32:11.142Z,1.13
2018-01-24T07:34:38.588Z,1.10
2018-01-24T07:37:06.212Z,1.30
2018-01-24T07:39:33.683Z,1.30
2018-01-24T07:42:01.181Z,1.40
2018-01-24T07:44:28.637Z,1.20
2018-01-24T07:46:56.096Z,0.90
2018-01-24T07:49:23.553Z,1.00
2018-01-24T07:51:51.446Z,1.13
2018-01-24T07:54:18.905Z,1.13
2018-01-24T07:56:46.365Z,1.17
2018-01-24T07:59:13.848Z,1.00
2018-01-24T08:01:41.320Z,1.20
2018-01-24T08:04:08.789Z,1.00
2018-01-24T08:06:36.469Z,1.00
2018-01-24T08:09:03.937Z,1.77
2018-01-24T08:11:31.381Z,1.00
2018-01-24T08:13:59.024Z,1.13
2018-01-24T08:16:26.504Z,1.10
2018-01-24T08:18:53.965Z,1.20
2018-01-24T08:21:21.428Z,0.80
2018-01-24T08:23:48.884Z,0.90
2018-01-24T08:26:16.342Z,0.97
2018-01-24T08:28:43.815Z,1.20
2018-01-24T08:31:12.041Z,1.30
2018-01-24T08:33:39.500Z,0.90
2018-01-24T08:36:06.954Z,0.87
2018-01-24T08:38:34.420Z,0.90
2018-01-24T08:41:02.105Z,1.67
2018-01-24T08:43:36.964Z,1.27
2018-01-24T08:45:57.418Z,1.10
2018-01-24T08:48:24.978Z,1.07
2018-01-24T08:50:52.443Z,0.80
2018-01-24T08:53:20.005Z,1.10
2018-01-24T08:55:47.642Z,0.90
2018-01-24T08:58:15.097Z,1.00
2018-01-24T09:00:59.944Z,0.90
2018-01-24T09:03:44.985Z,1.10
2018-01-24T09:06:30.009Z,1.10
2018-01-24T09:09:16.360Z,0.90
2018-01-24T09:12:01.239Z,1.10
2018-01-24T09:14:46.244Z,0.87
2018-01-24T09:17:31.217Z,1.00
2018-01-24T09:20:16.167Z,0.70
2018-01-24T09:22:57.642Z,0.73
2018-01-24T09:25:25.098Z,0.90
2018-01-24T09:27:52.554Z,0.83
2018-01-24T09:30:20.020Z,1.03
2018-01-24T09:32:47.488Z,1.07
2018-01-24T09:35:14.944Z,0.80
2018-01-24T09:37:42.554Z,0.80
2018-01-24T09:40:10.015Z,1.00
2018-01-24T09:42:37.473Z,0.90
2018-01-24T09:45:04.949Z,0.77
2018-01-24T09:47:32.413Z,0.80
2018-01-24T09:49:59.877Z,0.90
2018-01-24T09:52:27.345Z,1.03
2018-01-24T09:54:55.014Z,0.87
2018-01-24T09:57:22.473Z,0.87
2018-01-24T09:59:49.925Z,1.10
2018-01-24T10:02:17.381Z,0.80
2018-01-24T10:04:44.909Z,0.90
2018-01-24T10:07:12.656Z,0.80
2018-01-24T10:09:40.283Z,0.63
2018-01-24T10:12:07.745Z,1.00
2018-01-24T10:14:35.227Z,0.97
2018-01-24T10:17:02.706Z,0.90
2018-01-24T10:19:30.203Z,0.90
2018-01-24T10:21:58.072Z,1.00
2018-01-24T10:24:25.656Z,0.80
2018-01-24T10:26:53.130Z,0.90
2018-01-24T10:29:20.593Z,1.07
2018-01-24T10:31:48.056Z,0.90
2018-01-24T10:34:15.515Z,0.90
2018-01-24T10:36:42.972Z,1.10
2018-01-24T10:39:10.433Z,0.90
2018-01-24T10:41:37.905Z,1.00
2018-01-24T10:44:05.372Z,1.23
2018-01-24T10:46:32.901Z,0.70
2018-01-24T10:49:00.665Z,0.90
2018-01-24T10:51:28.129Z,1.10
2018-01-24T10:53:55.596Z,0.87
2018-01-24T10:56:23.217Z,0.80
2018-01-24T10:58:50.680Z,0.73
2018-01-24T11:01:18.260Z,0.80
2018-01-24T11:03:45.746Z,0.87
2018-01-24T11:06:13.245Z,0.90
2018-01-24T11:08:40.662Z,0.70
2018-01-24T11:11:08.147Z,0.80
2018-01-24T11:13:35.599Z,0.90
2018-01-24T11:16:03.082Z,0.73
2018-01-24T11:18:30.765Z,0.93
2018-01-24T11:20:59.066Z,1.00
2018-01-24T11:23:26.540Z,0.80
2018-01-24T11:25:53.996Z,0.90
2018-01-24T11:28:21.495Z,0.80
2018-01-24T11:30:49.008Z,1.10
2018-01-24T11:33:16.581Z,1.00
2018-01-24T11:35:44.825Z,0.73
2018-01-24T11:38:12.278Z,0.87
2018-01-24T11:40:39.779Z,0.90
2018-01-24T11:43:07.228Z,1.20
2018-01-24T11:45:34.691Z,0.90
2018-01-24T11:48:02.294Z,0.70
2018-01-24T11:50:29.813Z,0.90
2018-01-24T11:52:57.256Z,0.87
2018-01-24T11:55:24.730Z,0.90
2018-01-24T11:57:52.239Z,1.10
2018-01-24T12:00:19.707Z,0.90
2018-01-24T12:02:47.164Z,0.90
2018-01-24T12:05:14.724Z,1.10
2018-01-24T12:07:42.186Z,0.90
2018-01-24T12:10:09.860Z,0.80
2018-01-24T12:12:37.309Z,0.93
2018-01-24T12:15:05.085Z,1.13
2018-01-24T12:17:32.765Z,0.77
2018-01-24T12:20:00.258Z,0.67
2018-01-24T12:22:27.704Z,1.10
2018-01-24T12:24:55.189Z,0.90
2018-01-24T12:27:22.661Z,0.80
2018-01-24T12:29:50.312Z,0.70
2018-01-24T12:32:17.780Z,1.57
2018-01-24T12:34:45.236Z,1.17
2018-01-24T12:37:12.708Z,1.20
2018-01-24T12:39:40.264Z,1.40
2018-01-24T12:42:07.720Z,1.20
2018-01-24T12:44:35.176Z,1.10
2018-01-24T12:47:02.636Z,1.03
2018-01-24T12:49:30.089Z,1.60
2018-01-24T12:51:57.641Z,1.00
2018-01-24T12:54:25.311Z,0.97
2018-01-24T12:56:52.782Z,1.27
2018-01-24T12:59:20.414Z,1.20
2018-01-24T13:01:47.906Z,1.27
2018-01-24T13:04:15.335Z,1.00
2018-01-24T13:06:42.788Z,1.20
2018-01-24T13:09:10.372Z,0.90
2018-01-24T13:11:37.838Z,1.00
2018-01-24T13:14:05.289Z,0.90
2018-01-24T13:16:32.749Z,1.60
2018-01-24T13:19:00.865Z,1.10
2018-01-24T13:21:28.332Z,1.30
2018-01-24T13:23:55.805Z,1.47
2018-01-24T13:26:23.383Z,0.80
2018-01-24T13:28:50.847Z,1.00
2018-01-24T13:31:18.299Z,1.20
2018-01-24T13:33:46.048Z,1.00
2018-01-24T13:36:13.492Z,0.90
2018-01-24T13:38:40.964Z,1.40
2018-01-24T13:41:08.436Z,1.27
2018-01-24T13:43:36.031Z,1.73
2018-01-24T13:46:03.508Z,1.63
2018-01-24T13:48:30.993Z,1.50
2018-01-24T13:50:58.705Z,1.50
2018-01-24T13:53:26.164Z,1.20
2018-01-24T13:55:53.821Z,1.30
2018-01-24T13:58:21.282Z,1.63
2018-01-24T14:00:48.737Z,2.00
2018-01-24T14:03:16.194Z,2.03
2018-01-24T14:05:43.664Z,1.93
2018-01-24T14:08:11.138Z,1.40
2018-01-24T14:10:38.581Z,1.87
2018-01-24T14:13:06.129Z,1.87
2018-01-24T14:15:33.656Z,1.40
2018-01-24T14:18:01.120Z,1.50
2018-01-24T14:20:28.757Z,1.67
2018-01-24T14:22:56.651Z,1.30
2018-01-24T14:25:24.255Z,1.53
2018-01-24T14:27:51.814Z,1.60
2018-01-24T14:30:19.472Z,1.67
2018-01-24T14:32:46.957Z,1.70
2018-01-24T14:35:14.412Z,1.50
2018-01-24T14:37:41.876Z,1.70
2018-01-24T14:40:09.333Z,2.00
2018-01-24T14:42:36.799Z,2.07
2018-01-24T14:45:04.326Z,3.30
2018-01-24T14:47:32.092Z,5.00
2018-01-24T14:49:59.836Z,3.40
2018-01-24T14:52:27.300Z,3.47
2018-01-24T14:54:55.069Z,3.27
2018-01-24T14:57:22.833Z,3.50
2018-01-24T14:59:50.334Z,3.30
2018-01-24T15:02:17.943Z,3.33
2018-01-24T15:04:45.401Z,3.10
2018-01-24T15:07:12.860Z,2.97
2018-01-24T15:09:40.325Z,3.17
2018-01-24T15:12:07.781Z,3.50
2018-01-24T15:14:35.261Z,3.37
2018-01-24T15:17:03.641Z,2.47
2018-01-24T15:19:31.096Z,3.07
2018-01-24T15:21:59.584Z,2.87
2018-01-24T15:24:27.037Z,2.70
2018-01-24T15:26:54.504Z,2.90
2018-01-24T15:29:21.953Z,3.03
2018-01-24T15:31:49.597Z,2.60
2018-01-24T15:34:17.075Z,2.43
2018-01-24T15:36:44.532Z,2.70
2018-01-24T15:39:11.992Z,2.87
2018-01-24T15:41:39.445Z,2.67
2018-01-24T15:44:06.992Z,2.40
2018-01-24T15:46:34.448Z,2.60
2018-01-24T15:49:02.132Z,3.40
2018-01-24T15:51:29.668Z,3.00
2018-01-24T15:53:57.139Z,2.90
2018-01-24T15:56:24.597Z,2.93
2018-01-24T15:58:52.052Z,2.50
2018-01-24T16:01:19.676Z,2.60
2018-01-24T16:03:47.136Z,2.73
2018-01-24T16:06:14.596Z,2.43
2018-01-24T16:08:42.088Z,2.73
2018-01-24T16:11:09.552Z,2.60
2018-01-24T16:13:37.016Z,2.83
2018-01-24T16:16:04.460Z,2.50
2018-01-24T16:18:31.924Z,2.60
2018-01-24T16:20:59.380Z,2.20
2018-01-24T16:23:26.828Z,2.40
2018-01-24T16:25:54.284Z,2.47
2018-01-24T16:28:21.745Z,2.50
2018-01-24T16:30:49.205Z,2.40
2018-01-24T16:33:16.678Z,2.07
2018-01-24T16:35:44.133Z,2.57
2018-01-24T16:38:11.591Z,2.57
2018-01-24T16:40:39.033Z,2.60
2018-01-24T16:43:06.506Z,2.43
2018-01-24T16:45:33.953Z,2.40
2018-01-24T16:48:01.411Z,2.43
2018-01-24T16:50:28.885Z,2.27
2018-01-24T16:52:56.328Z,2.07
2018-01-24T16:55:23.799Z,2.07
2018-01-24T16:57:51.245Z,2.50
2018-01-24T17:00:19.498Z,2.07
2018-01-24T17:02:47.043Z,2.33
2018-01-24T17:05:14.628Z,2.30
2018-01-24T17:07:42.273Z,2.20
2018-01-24T17:10:09.737Z,2.30
2018-01-24T17:12:37.324Z,2.27
2018-01-24T17:15:04.782Z,2.33
2018-01-24T17:17:32.241Z,2.57
2018-01-24T17:19:59.718Z,2.20
2018-01-24T17:22:27.202Z,2.27
2018-01-24T17:24:54.795Z,2.40
2018-01-24T17:27:22.245Z,2.20
2018-01-24T17:29:49.705Z,2.13
2018-01-24T17:32:17.161Z,2.27
2018-01-24T17:34:44.616Z,2.27
2018-01-24T17:37:12.077Z,2.30
2018-01-24T17:39:39.544Z,2.17
2018-01-24T17:42:07.005Z,2.33
2018-01-24T17:44:34.572Z,1.90
2018-01-24T17:47:02.215Z,2.00
2018-01-24T17:49:29.685Z,2.17
2018-01-24T17:51:57.129Z,2.93
2018-01-24T17:54:24.733Z,2.23
2018-01-24T17:56:52.189Z,2.03
2018-01-24T17:59:19.726Z,1.63
2018-01-24T18:01:47.317Z,2.10
2018-01-24T18:04:14.803Z,2.30
2018-01-24T18:06:42.303Z,2.00
2018-01-24T18:09:09.748Z,3.53
2018-01-24T18:11:37.202Z,3.13
2018-01-24T18:14:04.696Z,4.83
2018-01-24T18:16:32.150Z,3.37
2018-01-24T18:18:59.633Z,3.10
2018-01-24T18:21:27.092Z,3.10
2018-01-24T18:23:54.561Z,3.43
2018-01-24T18:26:22.010Z,3.57
2018-01-24T18:28:49.477Z,3.83
2018-01-24T18:31:17.201Z,5.60
2018-01-24T18:33:44.657Z,3.40
2018-01-24T18:36:12.421Z,3.33
2018-01-24T18:38:40.080Z,3.60
2018-01-24T18:41:07.562Z,3.30
2018-01-24T18:43:35.008Z,3.07
2018-01-24T18:46:02.475Z,3.97
2018-01-24T18:48:29.969Z,4.60
2018-01-24T18:50:58.428Z,3.37
2018-01-24T18:53:25.885Z,3.30
2018-01-24T18:55:53.357Z,3.20
2018-01-24T18:58:21.008Z,3.10
2018-01-24T19:00:48.463Z,3.47
2018-01-24T19:03:15.921Z,3.10
2018-01-24T19:05:43.394Z,3.33
2018-01-24T19:08:10.856Z,2.97
2018-01-24T19:10:38.318Z,3.60
2018-01-24T19:13:05.853Z,2.60
2018-01-24T19:15:33.317Z,3.40
2018-01-24T19:18:00.777Z,3.37
2018-01-24T19:20:28.249Z,3.27
2018-01-24T19:22:55.706Z,3.37
2018-01-24T19:25:23.165Z,2.87
2018-01-24T19:27:50.609Z,3.37
2018-01-24T19:30:18.082Z,2.80
2018-01-24T19:32:45.678Z,2.47
2018-01-24T19:35:13.150Z,2.70
2018-01-24T19:37:40.609Z,2.47
2018-01-24T19:40:08.094Z,2.60
2018-01-24T19:42:35.542Z,2.80
2018-01-24T19:45:03.006Z,2.20
2018-01-24T19:47:30.465Z,2.17
2018-01-24T19:49:57.923Z,2.83
2018-01-24T19:52:26.150Z,2.27
2018-01-24T19:54:53.748Z,2.90
2018-01-24T19:57:21.200Z,2.80
2018-01-24T19:59:48.681Z,2.70
2018-01-24T20:02:16.128Z,2.73
2018-01-24T20:04:43.594Z,2.80
2018-01-24T20:07:11.048Z,2.87
2018-01-24T20:09:38.978Z,2.60
2018-01-24T20:12:06.681Z,2.57
2018-01-24T20:14:34.438Z,2.97
2018-01-24T20:17:01.915Z,2.57
2018-01-24T20:19:29.402Z,2.13
2018-01-24T20:21:56.976Z,2.50
2018-01-24T20:24:24.448Z,3.03
2018-01-24T20:26:52.034Z,3.37
2018-01-24T20:29:19.489Z,3.13
2018-01-24T20:31:47.136Z,2.80
2018-01-24T20:34:14.592Z,2.73
2018-01-24T20:36:42.072Z,2.50
2018-01-24T20:39:09.525Z,2.67
2018-01-24T20:41:37.084Z,2.60
2018-01-24T20:44:04.540Z,3.00
2018-01-24T20:46:32.488Z,2.43
2018-01-24T20:49:00.077Z,2.07
2018-01-24T20:51:27.534Z,2.40
2018-01-24T20:53:54.995Z,3.00
2018-01-24T20:56:22.758Z,2.50
2018-01-24T20:58:50.219Z,2.70
2018-01-24T21:01:17.677Z,2.60
2018-01-24T21:03:45.485Z,2.50
2018-01-24T21:06:12.970Z,2.23
2018-01-24T21:08:40.425Z,2.63
2018-01-24T21:11:07.890Z,0.90
2018-01-24T21:13:35.455Z,0.97
2018-01-24T21:16:03.048Z,1.10
2018-01-24T21:18:30.499Z,1.00
2018-01-24T21:20:58.130Z,1.10
2018-01-24T21:23:25.636Z,1.40
2018-01-24T21:25:53.133Z,1.10
2018-01-24T21:28:32.332Z,0.97
2018-01-24T21:31:11.599Z,1.00
2018-01-24T21:33:55.811Z,1.00
2018-01-24T21:36:34.075Z,1.00
2018-01-24T21:39:01.528Z,1.13
2018-01-24T21:41:28.992Z,1.00
2018-01-24T21:43:56.555Z,1.23
2018-01-24T21:46:24.012Z,1.27
2018-01-24T21:48:51.460Z,0.93
2018-01-24T21:51:19.042Z,0.80
2018-01-24T21:53:46.839Z,0.80
2018-01-24T21:56:14.396Z,0.80
2018-01-24T21:58:41.857Z,1.13
2018-01-24T22:01:09.312Z,1.10
2018-01-24T22:03:36.766Z,0.90
2018-01-24T22:06:04.296Z,0.90
2018-01-24T22:08:31.744Z,1.00
2018-01-24T22:10:59.205Z,0.90
2018-01-24T22:13:26.656Z,0.80
2018-01-24T22:15:55.154Z,0.90
2018-01-24T22:18:22.809Z,1.07
2018-01-24T22:20:50.397Z,0.90
2018-01-24T22:23:17.854Z,0.93
2018-01-24T22:25:45.316Z,0.80
2018-01-24T22:28:12.949Z,1.17
2018-01-24T22:30:40.402Z,0.90
2018-01-24T22:33:08.070Z,0.80
2018-01-24T22:35:35.612Z,0.70
2018-01-24T22:38:03.084Z,0.77
2018-01-24T22:40:30.528Z,0.90
2018-01-24T22:42:58.050Z,0.90
2018-01-24T22:45:25.517Z,0.90
2018-01-24T22:47:53.009Z,0.80
2018-01-24T22:50:20.453Z,0.70
2018-01-24T22:52:47.908Z,0.90
2018-01-24T22:55:15.370Z,0.90
2018-01-24T22:57:42.839Z,0.73
2018-01-24T23:00:10.319Z,1.00
2018-01-24T23:02:37.776Z,0.80
2018-01-24T23:05:05.337Z,0.97
2018-01-24T23:07:32.949Z,0.90
2018-01-24T23:10:00.415Z,0.70
2018-01-24T23:12:27.860Z,0.93
2018-01-24T23:14:55.335Z,0.67
2018-01-24T23:17:22.843Z,0.70
2018-01-24T23:19:50.871Z,0.90
2018-01-24T23:22:18.381Z,1.00
2018-01-24T23:24:45.836Z,0.80
2018-01-24T23:27:13.312Z,0.80
2018-01-24T23:29:41.072Z,0.77
2018-01-24T23:32:08.549Z,0.70
2018-01-24T23:34:36.183Z,1.00
2018-01-24T23:37:03.737Z,0.80
2018-01-24T23:39:31.522Z,0.77
2018-01-24T23:41:59.272Z,0.70
2018-01-24T23:44:26.745Z,0.80
2018-01-24T23:46:54.196Z,0.80
2018-01-24T23:49:21.841Z,0.80
2018-01-24T23:51:49.312Z,0.80
2018-01-24T23:54:16.768Z,0.63
2018-01-24T23:56:44.240Z,0.63
2018-01-24T23:59:11.689Z,0.67
